sensor_id;sensor_type;location;lat;lon;timestamp;P1;durP1;ratioP1;P2;durP2;ratioP2
28166;SDS011;15455;53.376;-6.262;2023-09-19T00:01:19;21.92;;;2.95;;
28166;SDS011;15455;53.376;-6.262;2023-09-19T00:04:05;15.75;;;2.42;;
28166;SDS011;15455;53.376;-6.262;2023-09-19T00:06:55;21.90;;;4.20;;
28166;SDS011;15455;53.376;-6.262;2023-09-19T00:09:41;18.63;;;2.80;;
28166;SDS011;15455;53.376;-6.262;2023-09-19T00:12:29;22.98;;;3.25;;
28166;SDS011;15455;53.376;-6.262;2023-09-19T00:15:14;22.45;;;2.72;;
28166;SDS011;15455;53.376;-6.262;2023-09-19T00:18:03;15.45;;;1.85;;
28166;SDS011;15455;53.376;-6.262;2023-09-19T00:20:51;19.10;;;3.10;;
28166;SDS011;15455;53.376;-6.262;2023-09-19T00:23:38;11.93;;;1.73;;
28166;SDS011;15455;53.376;-6.262;2023-09-19T00:26:26;14.15;;;2.30;;
28166;SDS011;15455;53.376;-6.262;2023-09-19T00:29:15;23.88;;;3.03;;
28166;SDS011;15455;53.376;-6.262;2023-09-19T00:32:02;10.95;;;2.20;;
28166;SDS011;15455;53.376;-6.262;2023-09-19T00:34:48;12.25;;;2.05;;
28166;SDS011;15455;53.376;-6.262;2023-09-19T00:37:34;17.48;;;2.65;;
28166;SDS011;15455;53.376;-6.262;2023-09-19T00:40:20;7.03;;;2.08;;
28166;SDS011;15455;53.376;-6.262;2023-09-19T00:43:07;18.98;;;2.15;;
28166;SDS011;15455;53.376;-6.262;2023-09-19T00:45:54;15.45;;;2.40;;
28166;SDS011;15455;53.376;-6.262;2023-09-19T00:48:41;14.98;;;1.65;;
28166;SDS011;15455;53.376;-6.262;2023-09-19T00:51:29;13.02;;;2.38;;
28166;SDS011;15455;53.376;-6.262;2023-09-19T00:54:15;10.25;;;2.17;;
28166;SDS011;15455;53.376;-6.262;2023-09-19T00:57:03;17.25;;;2.10;;
28166;SDS011;15455;53.376;-6.262;2023-09-19T00:59:49;17.05;;;2.55;;
28166;SDS011;15455;53.376;-6.262;2023-09-19T01:02:38;13.30;;;1.80;;
28166;SDS011;15455;53.376;-6.262;2023-09-19T01:05:24;16.45;;;2.15;;
28166;SDS011;15455;53.376;-6.262;2023-09-19T01:08:10;7.78;;;1.67;;
28166;SDS011;15455;53.376;-6.262;2023-09-19T01:10:59;13.75;;;1.92;;
28166;SDS011;15455;53.376;-6.262;2023-09-19T01:23:11;18.80;;;3.33;;
28166;SDS011;15455;53.376;-6.262;2023-09-19T01:26:18;14.70;;;2.10;;
28166;SDS011;15455;53.376;-6.262;2023-09-19T01:29:26;12.23;;;1.42;;
28166;SDS011;15455;53.376;-6.262;2023-09-19T01:32:24;8.88;;;1.40;;
28166;SDS011;15455;53.376;-6.262;2023-09-19T01:35:11;6.35;;;1.40;;
28166;SDS011;15455;53.376;-6.262;2023-09-19T01:37:58;17.77;;;2.08;;
28166;SDS011;15455;53.376;-6.262;2023-09-19T01:40:46;7.72;;;1.80;;
28166;SDS011;15455;53.376;-6.262;2023-09-19T01:43:41;8.45;;;1.25;;
28166;SDS011;15455;53.376;-6.262;2023-09-19T01:46:33;7.10;;;1.40;;
28166;SDS011;15455;53.376;-6.262;2023-09-19T01:49:34;6.95;;;1.08;;
28166;SDS011;15455;53.376;-6.262;2023-09-19T01:52:21;9.30;;;1.83;;
28166;SDS011;15455;53.376;-6.262;2023-09-19T01:55:13;4.57;;;1.25;;
28166;SDS011;15455;53.376;-6.262;2023-09-19T01:58:12;5.78;;;1.58;;
28166;SDS011;15455;53.376;-6.262;2023-09-19T02:01:03;10.98;;;1.83;;
28166;SDS011;15455;53.376;-6.262;2023-09-19T02:03:51;9.38;;;1.20;;
28166;SDS011;15455;53.376;-6.262;2023-09-19T02:06:40;9.48;;;2.10;;
28166;SDS011;15455;53.376;-6.262;2023-09-19T02:09:27;4.30;;;1.30;;
28166;SDS011;15455;53.376;-6.262;2023-09-19T02:12:12;6.68;;;1.58;;
28166;SDS011;15455;53.376;-6.262;2023-09-19T02:14:58;13.73;;;2.35;;
28166;SDS011;15455;53.376;-6.262;2023-09-19T02:17:44;8.40;;;1.35;;
28166;SDS011;15455;53.376;-6.262;2023-09-19T02:20:31;6.18;;;1.20;;
28166;SDS011;15455;53.376;-6.262;2023-09-19T02:23:18;6.88;;;1.67;;
28166;SDS011;15455;53.376;-6.262;2023-09-19T02:26:04;9.55;;;1.38;;
28166;SDS011;15455;53.376;-6.262;2023-09-19T02:28:50;6.75;;;1.20;;
28166;SDS011;15455;53.376;-6.262;2023-09-19T02:31:36;9.27;;;1.33;;
28166;SDS011;15455;53.376;-6.262;2023-09-19T02:34:22;7.18;;;1.63;;
28166;SDS011;15455;53.376;-6.262;2023-09-19T02:37:08;6.93;;;1.23;;
28166;SDS011;15455;53.376;-6.262;2023-09-19T02:39:58;15.52;;;1.73;;
28166;SDS011;15455;53.376;-6.262;2023-09-19T02:42:44;7.90;;;2.10;;
28166;SDS011;15455;53.376;-6.262;2023-09-19T02:45:35;6.63;;;2.50;;
28166;SDS011;15455;53.376;-6.262;2023-09-19T02:48:21;12.10;;;2.60;;
28166;SDS011;15455;53.376;-6.262;2023-09-19T02:51:06;17.27;;;2.33;;
28166;SDS011;15455;53.376;-6.262;2023-09-19T02:53:52;7.90;;;1.92;;
28166;SDS011;15455;53.376;-6.262;2023-09-19T02:56:37;4.47;;;1.80;;
28166;SDS011;15455;53.376;-6.262;2023-09-19T02:59:23;12.63;;;2.05;;
28166;SDS011;15455;53.376;-6.262;2023-09-19T03:02:10;13.65;;;1.65;;
28166;SDS011;15455;53.376;-6.262;2023-09-19T03:04:55;12.10;;;1.77;;
28166;SDS011;15455;53.376;-6.262;2023-09-19T03:07:42;5.18;;;1.80;;
28166;SDS011;15455;53.376;-6.262;2023-09-19T03:10:32;9.82;;;2.30;;
28166;SDS011;15455;53.376;-6.262;2023-09-19T03:13:17;5.45;;;2.08;;
28166;SDS011;15455;53.376;-6.262;2023-09-19T03:16:06;10.05;;;2.47;;
28166;SDS011;15455;53.376;-6.262;2023-09-19T03:18:52;7.90;;;2.20;;
28166;SDS011;15455;53.376;-6.262;2023-09-19T03:21:40;6.82;;;1.92;;
28166;SDS011;15455;53.376;-6.262;2023-09-19T03:24:25;7.13;;;1.60;;
28166;SDS011;15455;53.376;-6.262;2023-09-19T03:27:12;3.72;;;1.33;;
28166;SDS011;15455;53.376;-6.262;2023-09-19T03:30:01;6.93;;;1.52;;
28166;SDS011;15455;53.376;-6.262;2023-09-19T03:32:51;8.50;;;1.75;;
28166;SDS011;15455;53.376;-6.262;2023-09-19T03:35:39;4.32;;;1.65;;
28166;SDS011;15455;53.376;-6.262;2023-09-19T03:38:25;8.00;;;1.38;;
28166;SDS011;15455;53.376;-6.262;2023-09-19T03:41:11;1.90;;;1.17;;
28166;SDS011;15455;53.376;-6.262;2023-09-19T03:44:00;3.80;;;1.38;;
28166;SDS011;15455;53.376;-6.262;2023-09-19T03:46:45;2.42;;;1.10;;
28166;SDS011;15455;53.376;-6.262;2023-09-19T03:49:31;3.70;;;1.23;;
28166;SDS011;15455;53.376;-6.262;2023-09-19T03:52:17;2.88;;;1.02;;
28166;SDS011;15455;53.376;-6.262;2023-09-19T03:55:03;3.15;;;0.93;;
28166;SDS011;15455;53.376;-6.262;2023-09-19T03:57:49;1.73;;;1.10;;
28166;SDS011;15455;53.376;-6.262;2023-09-19T04:00:35;4.03;;;1.02;;
28166;SDS011;15455;53.376;-6.262;2023-09-19T04:03:24;4.45;;;1.65;;
28166;SDS011;15455;53.376;-6.262;2023-09-19T04:06:20;5.40;;;1.20;;
28166;SDS011;15455;53.376;-6.262;2023-09-19T04:09:06;5.50;;;1.30;;
28166;SDS011;15455;53.376;-6.262;2023-09-19T04:11:52;6.90;;;1.20;;
28166;SDS011;15455;53.376;-6.262;2023-09-19T04:14:37;5.22;;;1.60;;
28166;SDS011;15455;53.376;-6.262;2023-09-19T04:17:24;3.13;;;1.25;;
28166;SDS011;15455;53.376;-6.262;2023-09-19T04:20:10;3.67;;;1.50;;
28166;SDS011;15455;53.376;-6.262;2023-09-19T04:22:57;3.30;;;1.02;;
28166;SDS011;15455;53.376;-6.262;2023-09-19T04:25:43;3.30;;;1.10;;
28166;SDS011;15455;53.376;-6.262;2023-09-19T04:28:29;5.63;;;1.42;;
28166;SDS011;15455;53.376;-6.262;2023-09-19T04:31:14;3.58;;;1.13;;
28166;SDS011;15455;53.376;-6.262;2023-09-19T04:34:01;3.92;;;0.80;;
28166;SDS011;15455;53.376;-6.262;2023-09-19T04:36:50;3.45;;;1.02;;
28166;SDS011;15455;53.376;-6.262;2023-09-19T04:39:36;5.38;;;1.10;;
28166;SDS011;15455;53.376;-6.262;2023-09-19T04:42:21;2.15;;;0.85;;
28166;SDS011;15455;53.376;-6.262;2023-09-19T04:45:07;3.63;;;0.82;;
28166;SDS011;15455;53.376;-6.262;2023-09-19T04:47:55;1.05;;;0.82;;
28166;SDS011;15455;53.376;-6.262;2023-09-19T04:50:41;2.75;;;0.93;;
28166;SDS011;15455;53.376;-6.262;2023-09-19T04:53:26;7.40;;;1.30;;
28166;SDS011;15455;53.376;-6.262;2023-09-19T04:56:13;10.68;;;1.15;;
28166;SDS011;15455;53.376;-6.262;2023-09-19T04:58:59;2.45;;;0.88;;
28166;SDS011;15455;53.376;-6.262;2023-09-19T05:01:45;2.33;;;0.73;;
28166;SDS011;15455;53.376;-6.262;2023-09-19T05:04:32;1.55;;;0.60;;
28166;SDS011;15455;53.376;-6.262;2023-09-19T05:07:17;1.77;;;0.50;;
28166;SDS011;15455;53.376;-6.262;2023-09-19T05:10:03;3.55;;;0.75;;
28166;SDS011;15455;53.376;-6.262;2023-09-19T05:12:52;2.65;;;0.60;;
28166;SDS011;15455;53.376;-6.262;2023-09-19T05:15:38;0.93;;;0.30;;
28166;SDS011;15455;53.376;-6.262;2023-09-19T05:18:24;0.93;;;0.40;;
28166;SDS011;15455;53.376;-6.262;2023-09-19T05:21:11;2.55;;;0.60;;
28166;SDS011;15455;53.376;-6.262;2023-09-19T05:23:57;1.45;;;0.30;;
28166;SDS011;15455;53.376;-6.262;2023-09-19T05:26:43;2.40;;;0.30;;
28166;SDS011;15455;53.376;-6.262;2023-09-19T05:29:29;1.80;;;0.40;;
28166;SDS011;15455;53.376;-6.262;2023-09-19T05:32:14;3.50;;;0.25;;
28166;SDS011;15455;53.376;-6.262;2023-09-19T05:35:01;1.98;;;0.30;;
28166;SDS011;15455;53.376;-6.262;2023-09-19T05:37:47;0.65;;;0.40;;
28166;SDS011;15455;53.376;-6.262;2023-09-19T05:40:35;0.52;;;0.30;;
28166;SDS011;15455;53.376;-6.262;2023-09-19T05:43:21;0.52;;;0.40;;
28166;SDS011;15455;53.376;-6.262;2023-09-19T05:46:07;1.75;;;0.45;;
28166;SDS011;15455;53.376;-6.262;2023-09-19T05:48:53;1.85;;;0.20;;
28166;SDS011;15455;53.376;-6.262;2023-09-19T05:51:38;0.15;;;0.15;;
28166;SDS011;15455;53.376;-6.262;2023-09-19T05:54:24;0.47;;;0.28;;
28166;SDS011;15455;53.376;-6.262;2023-09-19T05:57:09;1.10;;;0.20;;
28166;SDS011;15455;53.376;-6.262;2023-09-19T05:59:57;3.13;;;0.40;;
28166;SDS011;15455;53.376;-6.262;2023-09-19T06:02:43;4.05;;;0.32;;
28166;SDS011;15455;53.376;-6.262;2023-09-19T06:05:30;0.57;;;0.10;;
28166;SDS011;15455;53.376;-6.262;2023-09-19T06:08:17;1.83;;;0.30;;
28166;SDS011;15455;53.376;-6.262;2023-09-19T06:11:02;0.20;;;0.10;;
28166;SDS011;15455;53.376;-6.262;2023-09-19T06:13:48;1.02;;;0.28;;
28166;SDS011;15455;53.376;-6.262;2023-09-19T06:16:34;0.20;;;0.10;;
28166;SDS011;15455;53.376;-6.262;2023-09-19T06:19:19;0.22;;;0.10;;
28166;SDS011;15455;53.376;-6.262;2023-09-19T06:22:08;1.15;;;0.10;;
28166;SDS011;15455;53.376;-6.262;2023-09-19T06:24:53;0.28;;;0.10;;
28166;SDS011;15455;53.376;-6.262;2023-09-19T06:27:39;0.10;;;0.10;;
28166;SDS011;15455;53.376;-6.262;2023-09-19T06:30:28;1.35;;;0.20;;
28166;SDS011;15455;53.376;-6.262;2023-09-19T06:33:14;0.10;;;0.10;;
28166;SDS011;15455;53.376;-6.262;2023-09-19T06:36:04;0.80;;;0.15;;
28166;SDS011;15455;53.376;-6.262;2023-09-19T06:38:50;0.10;;;0.10;;
28166;SDS011;15455;53.376;-6.262;2023-09-19T06:41:37;3.63;;;0.17;;
28166;SDS011;15455;53.376;-6.262;2023-09-19T06:44:27;0.10;;;0.10;;
28166;SDS011;15455;53.376;-6.262;2023-09-19T06:47:14;1.95;;;0.10;;
28166;SDS011;15455;53.376;-6.262;2023-09-19T06:50:01;0.28;;;0.05;;
28166;SDS011;15455;53.376;-6.262;2023-09-19T06:52:47;3.38;;;0.10;;
28166;SDS011;15455;53.376;-6.262;2023-09-19T06:55:35;0.00;;;0.00;;
28166;SDS011;15455;53.376;-6.262;2023-09-19T06:58:21;1.08;;;0.10;;
28166;SDS011;15455;53.376;-6.262;2023-09-19T07:01:07;0.35;;;0.08;;
28166;SDS011;15455;53.376;-6.262;2023-09-19T07:03:52;0.00;;;0.00;;
28166;SDS011;15455;53.376;-6.262;2023-09-19T07:06:38;0.03;;;0.00;;
28166;SDS011;15455;53.376;-6.262;2023-09-19T07:09:25;0.10;;;0.03;;
28166;SDS011;15455;53.376;-6.262;2023-09-19T07:12:12;0.10;;;0.10;;
28166;SDS011;15455;53.376;-6.262;2023-09-19T07:14:58;0.08;;;0.00;;
28166;SDS011;15455;53.376;-6.262;2023-09-19T07:17:44;0.00;;;0.00;;
28166;SDS011;15455;53.376;-6.262;2023-09-19T07:20:31;0.25;;;0.10;;
28166;SDS011;15455;53.376;-6.262;2023-09-19T07:23:18;0.00;;;0.00;;
28166;SDS011;15455;53.376;-6.262;2023-09-19T07:26:07;0.50;;;0.10;;
28166;SDS011;15455;53.376;-6.262;2023-09-19T07:28:52;2.40;;;0.10;;
28166;SDS011;15455;53.376;-6.262;2023-09-19T07:31:38;0.30;;;0.20;;
28166;SDS011;15455;53.376;-6.262;2023-09-19T07:34:24;0.10;;;0.10;;
28166;SDS011;15455;53.376;-6.262;2023-09-19T07:37:09;0.43;;;0.10;;
28166;SDS011;15455;53.376;-6.262;2023-09-19T07:39:54;1.75;;;0.10;;
28166;SDS011;15455;53.376;-6.262;2023-09-19T07:42:41;3.25;;;0.10;;
28166;SDS011;15455;53.376;-6.262;2023-09-19T07:45:29;0.70;;;0.10;;
28166;SDS011;15455;53.376;-6.262;2023-09-19T07:48:18;2.95;;;0.15;;
28166;SDS011;15455;53.376;-6.262;2023-09-19T07:51:04;3.70;;;0.20;;
28166;SDS011;15455;53.376;-6.262;2023-09-19T07:53:51;0.08;;;0.08;;
28166;SDS011;15455;53.376;-6.262;2023-09-19T07:56:38;1.55;;;0.20;;
28166;SDS011;15455;53.376;-6.262;2023-09-19T07:59:24;0.30;;;0.10;;
28166;SDS011;15455;53.376;-6.262;2023-09-19T08:02:09;2.08;;;0.20;;
28166;SDS011;15455;53.376;-6.262;2023-09-19T08:05:01;0.40;;;0.17;;
28166;SDS011;15455;53.376;-6.262;2023-09-19T08:07:51;2.15;;;0.20;;
28166;SDS011;15455;53.376;-6.262;2023-09-19T08:10:38;1.20;;;0.10;;
28166;SDS011;15455;53.376;-6.262;2023-09-19T08:13:25;0.15;;;0.15;;
28166;SDS011;15455;53.376;-6.262;2023-09-19T08:16:11;0.00;;;0.00;;
28166;SDS011;15455;53.376;-6.262;2023-09-19T08:18:57;1.08;;;0.20;;
28166;SDS011;15455;53.376;-6.262;2023-09-19T08:21:43;1.73;;;0.20;;
28166;SDS011;15455;53.376;-6.262;2023-09-19T08:24:32;1.85;;;0.10;;
28166;SDS011;15455;53.376;-6.262;2023-09-19T08:27:19;0.52;;;0.20;;
28166;SDS011;15455;53.376;-6.262;2023-09-19T08:30:05;1.27;;;0.10;;
28166;SDS011;15455;53.376;-6.262;2023-09-19T08:32:56;0.52;;;0.20;;
28166;SDS011;15455;53.376;-6.262;2023-09-19T08:35:43;1.30;;;0.10;;
28166;SDS011;15455;53.376;-6.262;2023-09-19T08:38:31;1.05;;;0.32;;
28166;SDS011;15455;53.376;-6.262;2023-09-19T08:41:18;0.08;;;0.00;;
28166;SDS011;15455;53.376;-6.262;2023-09-19T08:44:04;0.43;;;0.20;;
28166;SDS011;15455;53.376;-6.262;2023-09-19T08:46:54;0.65;;;0.22;;
28166;SDS011;15455;53.376;-6.262;2023-09-19T08:52:37;0.22;;;0.10;;
28166;SDS011;15455;53.376;-6.262;2023-09-19T08:55:27;0.20;;;0.20;;
28166;SDS011;15455;53.376;-6.262;2023-09-19T08:58:13;0.22;;;0.10;;
28166;SDS011;15455;53.376;-6.262;2023-09-19T09:01:04;0.40;;;0.10;;
28166;SDS011;15455;53.376;-6.262;2023-09-19T09:03:52;0.10;;;0.05;;
28166;SDS011;15455;53.376;-6.262;2023-09-19T09:06:38;0.98;;;0.38;;
28166;SDS011;15455;53.376;-6.262;2023-09-19T09:09:28;0.85;;;0.10;;
28166;SDS011;15455;53.376;-6.262;2023-09-19T09:12:14;0.30;;;0.00;;
28166;SDS011;15455;53.376;-6.262;2023-09-19T09:15:00;0.55;;;0.10;;
28166;SDS011;15455;53.376;-6.262;2023-09-19T09:17:49;0.30;;;0.10;;
28166;SDS011;15455;53.376;-6.262;2023-09-19T09:20:41;0.52;;;0.10;;
28166;SDS011;15455;53.376;-6.262;2023-09-19T09:23:27;1.55;;;0.10;;
28166;SDS011;15455;53.376;-6.262;2023-09-19T09:26:17;0.13;;;0.08;;
28166;SDS011;15455;53.376;-6.262;2023-09-19T09:29:03;0.63;;;0.10;;
28166;SDS011;15455;53.376;-6.262;2023-09-19T09:31:48;0.05;;;0.00;;
28166;SDS011;15455;53.376;-6.262;2023-09-19T09:34:34;1.85;;;0.10;;
28166;SDS011;15455;53.376;-6.262;2023-09-19T09:37:20;0.17;;;0.10;;
28166;SDS011;15455;53.376;-6.262;2023-09-19T09:40:17;0.10;;;0.10;;
28166;SDS011;15455;53.376;-6.262;2023-09-19T09:43:02;1.13;;;0.30;;
28166;SDS011;15455;53.376;-6.262;2023-09-19T09:45:50;1.00;;;0.10;;
28166;SDS011;15455;53.376;-6.262;2023-09-19T09:49:03;0.73;;;0.00;;
28166;SDS011;15455;53.376;-6.262;2023-09-19T09:52:12;1.75;;;0.10;;
28166;SDS011;15455;53.376;-6.262;2023-09-19T09:55:03;0.10;;;0.00;;
28166;SDS011;15455;53.376;-6.262;2023-09-19T09:58:02;0.30;;;0.10;;
28166;SDS011;15455;53.376;-6.262;2023-09-19T10:01:09;0.30;;;0.00;;
28166;SDS011;15455;53.376;-6.262;2023-09-19T10:03:58;0.35;;;0.03;;
28166;SDS011;15455;53.376;-6.262;2023-09-19T10:06:46;0.10;;;0.10;;
28166;SDS011;15455;53.376;-6.262;2023-09-19T10:09:44;0.40;;;0.10;;
28166;SDS011;15455;53.376;-6.262;2023-09-19T10:12:31;0.57;;;0.10;;
28166;SDS011;15455;53.376;-6.262;2023-09-19T10:15:20;0.38;;;0.17;;
28166;SDS011;15455;53.376;-6.262;2023-09-19T10:18:06;0.47;;;0.20;;
28166;SDS011;15455;53.376;-6.262;2023-09-19T10:21:03;0.32;;;0.05;;
28166;SDS011;15455;53.376;-6.262;2023-09-19T10:23:51;1.80;;;0.00;;
28166;SDS011;15455;53.376;-6.262;2023-09-19T10:26:41;1.75;;;0.20;;
28166;SDS011;15455;53.376;-6.262;2023-09-19T10:29:28;0.08;;;0.00;;
28166;SDS011;15455;53.376;-6.262;2023-09-19T10:32:17;2.33;;;0.20;;
28166;SDS011;15455;53.376;-6.262;2023-09-19T10:35:04;0.28;;;0.10;;
28166;SDS011;15455;53.376;-6.262;2023-09-19T10:37:52;0.17;;;0.17;;
28166;SDS011;15455;53.376;-6.262;2023-09-19T10:40:42;0.05;;;0.05;;
28166;SDS011;15455;53.376;-6.262;2023-09-19T10:43:29;0.70;;;0.20;;
28166;SDS011;15455;53.376;-6.262;2023-09-19T10:49:06;1.55;;;0.10;;
28166;SDS011;15455;53.376;-6.262;2023-09-19T10:51:57;0.20;;;0.10;;
28166;SDS011;15455;53.376;-6.262;2023-09-19T10:54:47;0.20;;;0.20;;
28166;SDS011;15455;53.376;-6.262;2023-09-19T10:57:37;0.70;;;0.05;;
28166;SDS011;15455;53.376;-6.262;2023-09-19T11:00:23;4.57;;;0.20;;
28166;SDS011;15455;53.376;-6.262;2023-09-19T11:06:02;0.30;;;0.20;;
28166;SDS011;15455;53.376;-6.262;2023-09-19T11:12:01;1.40;;;0.40;;
28166;SDS011;15455;53.376;-6.262;2023-09-19T11:14:47;0.10;;;0.10;;
28166;SDS011;15455;53.376;-6.262;2023-09-19T11:17:34;2.47;;;0.10;;
28166;SDS011;15455;53.376;-6.262;2023-09-19T11:20:22;0.90;;;0.10;;
28166;SDS011;15455;53.376;-6.262;2023-09-19T11:23:21;0.63;;;0.10;;
28166;SDS011;15455;53.376;-6.262;2023-09-19T11:26:10;0.03;;;0.03;;
28166;SDS011;15455;53.376;-6.262;2023-09-19T11:29:40;0.55;;;0.00;;
28166;SDS011;15455;53.376;-6.262;2023-09-19T11:33:15;0.47;;;0.10;;
28166;SDS011;15455;53.376;-6.262;2023-09-19T11:41:36;1.20;;;0.03;;
28166;SDS011;15455;53.376;-6.262;2023-09-19T11:47:12;1.70;;;0.10;;
28166;SDS011;15455;53.376;-6.262;2023-09-19T11:49:58;0.45;;;0.22;;
28166;SDS011;15455;53.376;-6.262;2023-09-19T11:52:47;0.30;;;0.10;;
28166;SDS011;15455;53.376;-6.262;2023-09-19T11:55:36;0.38;;;0.20;;
28166;SDS011;15455;53.376;-6.262;2023-09-19T11:58:24;0.65;;;0.20;;
28166;SDS011;15455;53.376;-6.262;2023-09-19T12:01:15;0.35;;;0.10;;
28166;SDS011;15455;53.376;-6.262;2023-09-19T12:04:10;0.05;;;0.05;;
28166;SDS011;15455;53.376;-6.262;2023-09-19T12:06:57;1.00;;;0.10;;
28166;SDS011;15455;53.376;-6.262;2023-09-19T12:09:50;0.20;;;0.10;;
28166;SDS011;15455;53.376;-6.262;2023-09-19T12:12:48;1.85;;;0.17;;
28166;SDS011;15455;53.376;-6.262;2023-09-19T12:15:38;1.05;;;0.10;;
28166;SDS011;15455;53.376;-6.262;2023-09-19T12:18:28;0.10;;;0.10;;
28166;SDS011;15455;53.376;-6.262;2023-09-19T12:21:30;0.10;;;0.10;;
28166;SDS011;15455;53.376;-6.262;2023-09-19T12:24:16;0.95;;;0.20;;
28166;SDS011;15455;53.376;-6.262;2023-09-19T12:27:05;0.13;;;0.13;;
28166;SDS011;15455;53.376;-6.262;2023-09-19T12:29:52;1.23;;;0.20;;
28166;SDS011;15455;53.376;-6.262;2023-09-19T12:32:54;0.88;;;0.10;;
28166;SDS011;15455;53.376;-6.262;2023-09-19T12:35:41;0.17;;;0.15;;
28166;SDS011;15455;53.376;-6.262;2023-09-19T12:38:30;0.32;;;0.00;;
28166;SDS011;15455;53.376;-6.262;2023-09-19T12:41:20;0.63;;;0.10;;
28166;SDS011;15455;53.376;-6.262;2023-09-19T12:44:07;0.15;;;0.10;;
28166;SDS011;15455;53.376;-6.262;2023-09-19T12:46:58;0.15;;;0.10;;
28166;SDS011;15455;53.376;-6.262;2023-09-19T12:53:24;3.72;;;0.35;;
28166;SDS011;15455;53.376;-6.262;2023-09-19T12:56:11;0.68;;;0.28;;
28166;SDS011;15455;53.376;-6.262;2023-09-19T12:58:59;0.40;;;0.22;;
28166;SDS011;15455;53.376;-6.262;2023-09-19T13:01:48;1.85;;;0.43;;
28166;SDS011;15455;53.376;-6.262;2023-09-19T13:04:52;1.98;;;0.30;;
28166;SDS011;15455;53.376;-6.262;2023-09-19T13:07:39;0.20;;;0.20;;
28166;SDS011;15455;53.376;-6.262;2023-09-19T13:10:28;1.35;;;0.25;;
28166;SDS011;15455;53.376;-6.262;2023-09-19T13:13:23;0.20;;;0.10;;
28166;SDS011;15455;53.376;-6.262;2023-09-19T13:16:13;3.63;;;0.40;;
28166;SDS011;15455;53.376;-6.262;2023-09-19T13:19:07;0.28;;;0.25;;
28166;SDS011;15455;53.376;-6.262;2023-09-19T13:21:52;0.82;;;0.43;;
28166;SDS011;15455;53.376;-6.262;2023-09-19T13:24:41;0.40;;;0.30;;
28166;SDS011;15455;53.376;-6.262;2023-09-19T13:27:27;1.05;;;0.30;;
28166;SDS011;15455;53.376;-6.262;2023-09-19T13:30:14;3.47;;;0.43;;
28166;SDS011;15455;53.376;-6.262;2023-09-19T13:33:08;3.42;;;0.30;;
28166;SDS011;15455;53.376;-6.262;2023-09-19T13:35:55;1.17;;;0.40;;
28166;SDS011;15455;53.376;-6.262;2023-09-19T13:38:42;1.63;;;0.43;;
28166;SDS011;15455;53.376;-6.262;2023-09-19T13:41:32;1.40;;;0.25;;
28166;SDS011;15455;53.376;-6.262;2023-09-19T13:44:17;0.40;;;0.30;;
28166;SDS011;15455;53.376;-6.262;2023-09-19T13:47:03;0.73;;;0.17;;
28166;SDS011;15455;53.376;-6.262;2023-09-19T13:49:54;1.30;;;0.35;;
28166;SDS011;15455;53.376;-6.262;2023-09-19T13:52:40;0.88;;;0.28;;
28166;SDS011;15455;53.376;-6.262;2023-09-19T13:55:25;0.82;;;0.30;;
28166;SDS011;15455;53.376;-6.262;2023-09-19T13:58:11;2.22;;;0.25;;
28166;SDS011;15455;53.376;-6.262;2023-09-19T14:00:58;2.95;;;0.57;;
28166;SDS011;15455;53.376;-6.262;2023-09-19T14:03:43;2.70;;;0.55;;
28166;SDS011;15455;53.376;-6.262;2023-09-19T14:06:31;4.85;;;1.15;;
28166;SDS011;15455;53.376;-6.262;2023-09-19T14:09:18;0.68;;;0.55;;
28166;SDS011;15455;53.376;-6.262;2023-09-19T14:12:04;2.10;;;0.80;;
28166;SDS011;15455;53.376;-6.262;2023-09-19T14:14:50;4.68;;;0.70;;
28166;SDS011;15455;53.376;-6.262;2023-09-19T14:17:37;1.40;;;0.60;;
28166;SDS011;15455;53.376;-6.262;2023-09-19T14:20:23;3.80;;;0.47;;
28166;SDS011;15455;53.376;-6.262;2023-09-19T14:23:09;1.85;;;0.40;;
28166;SDS011;15455;53.376;-6.262;2023-09-19T14:25:55;2.78;;;0.82;;
28166;SDS011;15455;53.376;-6.262;2023-09-19T14:28:40;0.77;;;0.57;;
28166;SDS011;15455;53.376;-6.262;2023-09-19T14:31:26;4.97;;;0.50;;
28166;SDS011;15455;53.376;-6.262;2023-09-19T14:34:13;3.60;;;0.55;;
28166;SDS011;15455;53.376;-6.262;2023-09-19T14:37:00;3.58;;;0.57;;
28166;SDS011;15455;53.376;-6.262;2023-09-19T14:39:45;2.88;;;0.73;;
28166;SDS011;15455;53.376;-6.262;2023-09-19T14:42:31;2.67;;;0.90;;
28166;SDS011;15455;53.376;-6.262;2023-09-19T14:45:16;4.10;;;0.75;;
28166;SDS011;15455;53.376;-6.262;2023-09-19T14:48:03;9.05;;;1.65;;
28166;SDS011;15455;53.376;-6.262;2023-09-19T14:50:51;4.97;;;1.27;;
28166;SDS011;15455;53.376;-6.262;2023-09-19T14:53:37;7.03;;;1.75;;
28166;SDS011;15455;53.376;-6.262;2023-09-19T14:56:23;9.18;;;1.73;;
28166;SDS011;15455;53.376;-6.262;2023-09-19T14:59:10;8.95;;;1.77;;
28166;SDS011;15455;53.376;-6.262;2023-09-19T15:01:56;11.65;;;2.13;;
28166;SDS011;15455;53.376;-6.262;2023-09-19T15:04:41;10.48;;;1.65;;
28166;SDS011;15455;53.376;-6.262;2023-09-19T15:07:30;13.02;;;2.42;;
28166;SDS011;15455;53.376;-6.262;2023-09-19T15:10:15;11.93;;;2.25;;
28166;SDS011;15455;53.376;-6.262;2023-09-19T15:13:01;17.08;;;2.70;;
28166;SDS011;15455;53.376;-6.262;2023-09-19T15:15:47;13.55;;;2.10;;
28166;SDS011;15455;53.376;-6.262;2023-09-19T15:18:33;11.10;;;2.25;;
28166;SDS011;15455;53.376;-6.262;2023-09-19T15:21:19;10.73;;;2.35;;
28166;SDS011;15455;53.376;-6.262;2023-09-19T15:24:05;6.03;;;2.33;;
28166;SDS011;15455;53.376;-6.262;2023-09-19T15:26:53;12.88;;;2.85;;
28166;SDS011;15455;53.376;-6.262;2023-09-19T15:29:40;11.02;;;1.67;;
28166;SDS011;15455;53.376;-6.262;2023-09-19T15:32:26;9.43;;;2.53;;
28166;SDS011;15455;53.376;-6.262;2023-09-19T15:35:12;6.50;;;1.63;;
28166;SDS011;15455;53.376;-6.262;2023-09-19T15:37:59;12.25;;;2.15;;
28166;SDS011;15455;53.376;-6.262;2023-09-19T15:40:46;9.85;;;2.28;;
28166;SDS011;15455;53.376;-6.262;2023-09-19T15:43:32;9.30;;;1.88;;
28166;SDS011;15455;53.376;-6.262;2023-09-19T15:46:21;8.48;;;2.47;;
28166;SDS011;15455;53.376;-6.262;2023-09-19T15:49:07;7.05;;;1.80;;
28166;SDS011;15455;53.376;-6.262;2023-09-19T15:51:53;9.82;;;1.92;;
28166;SDS011;15455;53.376;-6.262;2023-09-19T15:54:40;7.07;;;2.03;;
28166;SDS011;15455;53.376;-6.262;2023-09-19T15:57:29;9.10;;;2.00;;
28166;SDS011;15455;53.376;-6.262;2023-09-19T16:00:15;9.40;;;1.77;;
28166;SDS011;15455;53.376;-6.262;2023-09-19T16:03:02;6.93;;;2.20;;
28166;SDS011;15455;53.376;-6.262;2023-09-19T16:05:48;10.52;;;1.48;;
28166;SDS011;15455;53.376;-6.262;2023-09-19T16:08:33;9.23;;;3.92;;
28166;SDS011;15455;53.376;-6.262;2023-09-19T16:11:20;57.10;;;43.38;;
28166;SDS011;15455;53.376;-6.262;2023-09-19T16:14:06;12.63;;;5.65;;
28166;SDS011;15455;53.376;-6.262;2023-09-19T16:16:52;3.05;;;1.58;;
28166;SDS011;15455;53.376;-6.262;2023-09-19T16:19:37;13.88;;;10.23;;
28166;SDS011;15455;53.376;-6.262;2023-09-19T16:22:23;11.13;;;1.48;;
28166;SDS011;15455;53.376;-6.262;2023-09-19T16:25:08;8.27;;;1.42;;
28166;SDS011;15455;53.376;-6.262;2023-09-19T16:27:56;7.25;;;1.60;;
28166;SDS011;15455;53.376;-6.262;2023-09-19T16:30:42;7.13;;;1.33;;
28166;SDS011;15455;53.376;-6.262;2023-09-19T16:33:28;4.07;;;1.33;;
28166;SDS011;15455;53.376;-6.262;2023-09-19T16:36:17;7.15;;;1.20;;
28166;SDS011;15455;53.376;-6.262;2023-09-19T16:39:04;13.02;;;2.10;;
28166;SDS011;15455;53.376;-6.262;2023-09-19T16:41:51;6.45;;;1.55;;
28166;SDS011;15455;53.376;-6.262;2023-09-19T16:44:36;6.65;;;2.35;;
28166;SDS011;15455;53.376;-6.262;2023-09-19T16:47:23;4.18;;;0.85;;
28166;SDS011;15455;53.376;-6.262;2023-09-19T16:50:09;4.68;;;1.23;;
28166;SDS011;15455;53.376;-6.262;2023-09-19T16:52:56;4.53;;;1.50;;
28166;SDS011;15455;53.376;-6.262;2023-09-19T16:55:41;6.15;;;1.55;;
28166;SDS011;15455;53.376;-6.262;2023-09-19T16:58:27;6.88;;;2.08;;
28166;SDS011;15455;53.376;-6.262;2023-09-19T17:01:13;12.48;;;1.80;;
28166;SDS011;15455;53.376;-6.262;2023-09-19T17:04:00;8.50;;;1.50;;
28166;SDS011;15455;53.376;-6.262;2023-09-19T17:06:48;5.88;;;1.27;;
28166;SDS011;15455;53.376;-6.262;2023-09-19T17:09:33;6.10;;;1.35;;